createdAt,value
2022-10-22T00:02:24.785Z,89.29
2022-10-22T00:04:54.151Z,90.83
2022-10-22T00:07:23.626Z,88.68
2022-10-22T00:09:53.142Z,88.74
2022-10-22T00:12:22.403Z,89.83
2022-10-22T00:14:53.377Z,89.50
2022-10-22T00:17:22.980Z,93.22
2022-10-22T00:19:52.641Z,87.31
2022-10-22T00:22:21.971Z,85.83
2022-10-22T00:24:51.297Z,86.43
2022-10-22T00:27:20.952Z,89.21
2022-10-22T00:29:50.441Z,88.70
2022-10-22T00:32:21.193Z,89.79
2022-10-22T00:34:50.448Z,89.56
2022-10-22T00:37:20.042Z,87.10
2022-10-22T00:39:49.313Z,87.96
2022-10-22T00:42:23.272Z,86.92
2022-10-22T00:45:18.585Z,87.30
2022-10-22T00:47:54.453Z,85.86
2022-10-22T00:50:26.719Z,86.68
2022-10-22T00:52:56.619Z,86.79
2022-10-22T00:55:26.763Z,89.09
2022-10-22T00:57:57.038Z,89.17
2022-10-22T01:00:27.197Z,89.80
2022-10-22T01:02:58.215Z,91.04
2022-10-22T01:05:30.085Z,89.82
2022-10-22T01:07:59.786Z,87.70
2022-10-22T01:10:45.645Z,92.01
2022-10-22T01:13:23.908Z,89.75
2022-10-22T01:16:01.276Z,91.15
2022-10-22T01:18:38.903Z,88.69
2022-10-22T01:21:20.510Z,87.65
2022-10-22T01:24:08.129Z,89.00
2022-10-22T01:26:52.427Z,92.36
2022-10-22T01:29:26.028Z,90.65
2022-10-22T01:31:58.612Z,90.26
2022-10-22T01:34:28.669Z,89.53
2022-10-22T01:36:59.616Z,87.32
2022-10-22T01:39:29.876Z,85.43
2022-10-22T01:42:01.484Z,85.58
2022-10-22T01:44:33.561Z,90.89
2022-10-22T01:47:11.427Z,88.40
2022-10-22T01:50:10.733Z,89.38
2022-10-22T01:52:53.494Z,87.27
2022-10-22T01:55:28.965Z,87.62
2022-10-22T01:58:14.428Z,88.29
2022-10-22T02:00:50.670Z,87.91
2022-10-22T02:03:25.151Z,88.16
2022-10-22T02:05:56.920Z,89.03
2022-10-22T02:08:28.559Z,87.15
2022-10-22T02:10:59.863Z,88.00
2022-10-22T02:13:36.218Z,91.08
2022-10-22T02:16:09.711Z,93.15
2022-10-22T02:18:41.490Z,88.29
2022-10-22T02:21:11.011Z,86.57
2022-10-22T02:23:40.917Z,90.18
2022-10-22T02:26:16.466Z,91.20
2022-10-22T02:28:50.716Z,87.53
2022-10-22T02:31:25.311Z,87.01
2022-10-22T02:33:58.212Z,86.95
2022-10-22T02:36:27.643Z,87.02
2022-10-22T02:38:57.719Z,89.68
2022-10-22T02:41:27.040Z,90.70
2022-10-22T02:43:57.485Z,87.66
2022-10-22T02:46:28.846Z,86.63
2022-10-22T02:49:02.230Z,88.28
2022-10-22T02:51:31.758Z,87.44
2022-10-22T02:54:00.864Z,86.49
2022-10-22T02:56:29.907Z,85.18
2022-10-22T02:58:59.309Z,85.95
2022-10-22T03:01:30.444Z,86.86
2022-10-22T03:03:59.705Z,84.14
2022-10-22T03:06:29.099Z,83.83
2022-10-22T03:08:58.443Z,85.90
2022-10-22T03:11:27.961Z,87.97
2022-10-22T03:13:58.730Z,85.01
2022-10-22T03:16:29.905Z,88.94
2022-10-22T03:19:02.013Z,89.47
2022-10-22T03:21:35.595Z,85.35
2022-10-22T03:24:07.485Z,88.16
2022-10-22T03:26:37.081Z,89.44
2022-10-22T03:29:06.675Z,87.64
2022-10-22T03:31:38.397Z,87.16
2022-10-22T03:34:07.566Z,87.44
2022-10-22T03:36:37.287Z,88.76
2022-10-22T03:39:09.137Z,90.03
2022-10-22T03:41:38.944Z,92.63
2022-10-22T03:44:09.760Z,88.84
2022-10-22T03:46:40.385Z,89.19
2022-10-22T03:49:09.629Z,90.03
2022-10-22T03:51:39.381Z,87.01
2022-10-22T03:54:08.646Z,91.12
2022-10-22T03:56:37.859Z,86.28
2022-10-22T03:59:07.535Z,87.14
2022-10-22T04:01:37.071Z,91.01
2022-10-22T04:04:08.103Z,87.66
2022-10-22T04:06:37.400Z,86.13
2022-10-22T04:09:07.988Z,85.05
2022-10-22T04:11:37.409Z,85.26
2022-10-22T04:14:12.003Z,84.42
2022-10-22T04:16:41.776Z,85.22
2022-10-22T04:19:30.026Z,85.39
2022-10-22T04:22:00.253Z,84.70
2022-10-22T04:24:31.330Z,82.64
2022-10-22T04:27:00.935Z,84.43
2022-10-22T04:29:30.479Z,83.93
2022-10-22T04:32:03.492Z,88.82
2022-10-22T04:34:34.433Z,89.32
2022-10-22T04:37:04.926Z,85.21
2022-10-22T04:39:34.331Z,85.70
2022-10-22T04:42:03.953Z,86.11
2022-10-22T04:44:33.938Z,84.19
2022-10-22T04:47:03.213Z,87.87
2022-10-22T04:49:34.102Z,89.15
2022-10-22T04:52:03.553Z,84.43
2022-10-22T04:54:33.299Z,84.79
2022-10-22T04:57:02.759Z,84.78
2022-10-22T04:59:32.463Z,83.88
2022-10-22T05:02:01.704Z,85.90
2022-10-22T05:04:31.434Z,88.31
2022-10-22T05:07:02.286Z,89.32
2022-10-22T05:09:31.753Z,88.27
2022-10-22T05:12:01.110Z,85.87
2022-10-22T05:14:31.118Z,84.60
2022-10-22T05:17:14.145Z,85.41
2022-10-22T05:19:44.639Z,89.46
2022-10-22T05:22:16.590Z,87.65
2022-10-22T05:24:46.365Z,88.34
2022-10-22T05:29:48.504Z,89.17
2022-10-22T05:32:17.612Z,88.04
2022-10-22T05:34:46.731Z,86.11
2022-10-22T05:37:19.961Z,87.01
2022-10-22T05:39:57.471Z,87.22
2022-10-22T05:42:36.400Z,85.93
2022-10-22T05:45:08.816Z,87.26
2022-10-22T05:47:38.227Z,86.00
2022-10-22T05:50:11.179Z,85.18
2022-10-22T05:52:42.935Z,85.13
2022-10-22T05:55:13.831Z,85.95
2022-10-22T05:57:44.651Z,85.15
2022-10-22T06:00:16.544Z,85.91
2022-10-22T06:02:48.921Z,87.85
2022-10-22T06:05:19.397Z,88.98
2022-10-22T06:07:50.988Z,91.03
2022-10-22T06:10:22.229Z,89.35
2022-10-22T06:12:53.498Z,89.90
2022-10-22T06:15:22.528Z,93.32
2022-10-22T06:17:52.034Z,93.79
2022-10-22T06:20:21.375Z,88.81
2022-10-22T06:22:52.158Z,92.95
2022-10-22T06:25:21.452Z,90.62
2022-10-22T06:27:52.341Z,90.08
2022-10-22T06:30:23.373Z,94.00
2022-10-22T06:32:53.152Z,93.25
2022-10-22T06:35:24.215Z,94.60
2022-10-22T06:37:55.171Z,93.35
2022-10-22T06:40:30.471Z,89.49
2022-10-22T06:43:01.421Z,88.81
2022-10-22T06:45:30.826Z,91.98
2022-10-22T06:48:00.137Z,100.00
2022-10-22T06:50:30.206Z,100.00
2022-10-22T06:53:01.124Z,100.00
2022-10-22T06:55:30.287Z,100.00
2022-10-22T06:57:59.575Z,98.52
2022-10-22T07:00:29.283Z,96.30
2022-10-22T07:02:59.894Z,98.18
2022-10-22T07:05:29.120Z,93.65
2022-10-22T07:07:58.584Z,92.24
2022-10-22T07:10:30.806Z,91.87
2022-10-22T07:13:02.357Z,91.58
2022-10-22T07:15:32.033Z,92.83
2022-10-22T07:18:04.959Z,91.22
2022-10-22T07:20:37.234Z,91.57
2022-10-22T07:23:06.775Z,91.67
2022-10-22T07:25:40.178Z,91.24
2022-10-22T07:28:09.581Z,91.36
2022-10-22T07:30:40.313Z,93.24
2022-10-22T07:33:09.756Z,91.81
2022-10-22T07:35:39.884Z,94.64
2022-10-22T07:38:09.910Z,93.69
2022-10-22T07:40:40.772Z,91.76
2022-10-22T07:43:09.832Z,96.53
2022-10-22T07:45:39.097Z,94.17
2022-10-22T07:48:08.878Z,94.58
2022-10-22T07:50:38.201Z,93.25
2022-10-22T07:53:09.450Z,94.92
2022-10-22T07:55:43.032Z,92.52
2022-10-22T07:58:12.193Z,93.73
2022-10-22T08:00:41.787Z,94.33
2022-10-22T08:03:11.247Z,91.87
2022-10-22T08:05:41.172Z,95.12
2022-10-22T09:06:37.226Z,100.00
2022-10-22T09:12:38.392Z,100.00
2022-10-22T09:15:10.791Z,100.00
2022-10-22T09:17:47.428Z,100.00
2022-10-22T09:20:28.732Z,100.00
2022-10-22T09:23:14.139Z,100.00
2022-10-22T09:25:46.991Z,100.00
2022-10-22T09:28:18.778Z,100.00
2022-10-22T09:30:48.407Z,100.00
2022-10-22T09:33:22.628Z,100.00
2022-10-22T09:35:58.838Z,100.00
2022-10-22T09:38:31.814Z,100.00
2022-10-22T09:41:03.959Z,100.00
2022-10-22T09:43:36.281Z,100.00
2022-10-22T09:46:09.562Z,100.00
2022-10-22T09:48:41.112Z,100.00
2022-10-22T09:51:16.641Z,100.00
2022-10-22T09:54:19.617Z,100.00
2022-10-22T09:56:58.536Z,100.00
2022-10-22T09:59:32.571Z,100.00
2022-10-22T10:02:19.460Z,100.00
2022-10-22T10:04:53.645Z,100.00
2022-10-22T11:06:25.391Z,100.00
2022-10-22T11:08:59.236Z,100.00
2022-10-22T11:11:36.951Z,100.00
2022-10-22T11:14:12.952Z,100.00
2022-10-22T11:16:46.221Z,100.00
2022-10-22T11:19:22.998Z,100.00
2022-10-22T11:22:10.593Z,100.00
2022-10-22T11:24:44.975Z,100.00
2022-10-22T11:27:23.450Z,100.00
2022-10-22T11:29:57.555Z,100.00
2022-10-22T11:32:28.346Z,100.00
2022-10-22T11:34:59.818Z,100.00
2022-10-22T11:37:34.945Z,100.00
2022-10-22T11:40:07.245Z,100.00
2022-10-22T11:42:39.730Z,100.00
2022-10-22T11:45:29.725Z,100.00
2022-10-22T11:48:07.310Z,100.00
2022-10-22T11:50:52.983Z,100.00
2022-10-22T11:53:32.979Z,100.00
2022-10-22T11:56:21.241Z,100.00
2022-10-22T11:58:53.811Z,100.00
2022-10-22T12:01:27.482Z,100.00
2022-10-22T12:04:22.012Z,100.00
2022-10-22T12:06:59.640Z,100.00
2022-10-22T12:09:32.918Z,100.00
2022-10-22T12:12:13.619Z,100.00
2022-10-22T12:14:55.451Z,100.00
2022-10-22T12:17:27.589Z,100.00
2022-10-22T12:20:03.153Z,100.00
2022-10-22T12:22:37.238Z,100.00
2022-10-22T12:25:20.141Z,100.00
2022-10-22T12:27:55.153Z,100.00
2022-10-22T12:30:26.181Z,100.00
2022-10-22T12:32:57.930Z,100.00
2022-10-22T12:35:30.285Z,100.00
2022-10-22T12:38:02.305Z,100.00
2022-10-22T12:40:36.394Z,100.00
2022-10-22T12:43:12.527Z,100.00
2022-10-22T12:45:42.408Z,100.00
2022-10-22T12:48:18.024Z,100.00
2022-10-22T12:50:50.894Z,100.00
2022-10-22T12:53:23.546Z,100.00
2022-10-22T12:55:56.902Z,100.00
2022-10-22T12:58:29.875Z,100.00
2022-10-22T13:01:02.247Z,100.00
2022-10-22T13:03:36.079Z,100.00
2022-10-22T13:06:15.792Z,100.00
2022-10-22T13:08:45.389Z,100.00
2022-10-22T13:11:22.622Z,100.00
2022-10-22T13:13:52.311Z,100.00
2022-10-22T13:16:24.414Z,100.00
2022-10-22T13:18:55.252Z,100.00
2022-10-22T13:21:31.444Z,100.00
2022-10-22T13:24:02.943Z,100.00
2022-10-22T13:26:37.191Z,100.00
2022-10-22T13:29:12.536Z,100.00
2022-10-22T13:31:47.527Z,100.00
2022-10-22T13:34:22.265Z,100.00
2022-10-22T13:36:55.315Z,100.00
2022-10-22T13:39:26.402Z,100.00
2022-10-22T13:42:26.648Z,100.00
2022-10-22T13:44:58.709Z,100.00
2022-10-22T13:47:30.014Z,100.00
2022-10-22T13:50:05.352Z,100.00
2022-10-22T13:52:39.586Z,100.00
2022-10-22T13:55:16.110Z,100.00
2022-10-22T13:57:46.984Z,100.00
2022-10-22T14:00:18.974Z,100.00
2022-10-22T14:02:50.567Z,100.00
2022-10-22T14:05:21.887Z,100.00
2022-10-22T14:07:51.056Z,100.00
2022-10-22T14:10:22.663Z,100.00
2022-10-22T14:12:54.148Z,100.00
2022-10-22T14:15:25.234Z,100.00
2022-10-22T14:17:57.910Z,100.00
2022-10-22T14:20:29.433Z,100.00
2022-10-22T14:23:01.424Z,100.00
2022-10-22T14:25:31.608Z,100.00
2022-10-22T14:28:02.238Z,100.00
2022-10-22T14:30:32.917Z,100.00
2022-10-22T14:33:02.112Z,100.00
2022-10-22T14:35:31.903Z,100.00
2022-10-22T14:38:01.491Z,100.00
2022-10-22T14:40:30.925Z,100.00
2022-10-22T14:43:02.285Z,100.00
2022-10-22T14:45:31.798Z,100.00
2022-10-22T14:48:01.980Z,100.00
2022-10-22T14:50:31.351Z,100.00
2022-10-22T14:53:00.709Z,100.00
2022-10-22T14:55:30.397Z,100.00
2022-10-22T14:58:01.069Z,100.00
2022-10-22T15:00:30.801Z,100.00
2022-10-22T15:03:03.473Z,100.00
2022-10-22T15:05:33.752Z,100.00
2022-10-22T15:08:03.686Z,100.00
2022-10-22T15:10:33.174Z,100.00
2022-10-22T15:13:04.240Z,100.00
2022-10-22T15:15:39.421Z,100.00
2022-10-22T15:18:09.673Z,100.00
2022-10-22T15:20:38.810Z,100.00
2022-10-22T15:23:08.139Z,100.00
2022-10-22T15:25:37.850Z,100.00
2022-10-22T15:28:10.049Z,100.00
2022-10-22T15:30:39.537Z,100.00
2022-10-22T15:33:09.161Z,100.00
2022-10-22T15:35:38.612Z,100.00
2022-10-22T15:38:09.388Z,100.00
2022-10-22T15:40:38.553Z,100.00
2022-10-22T15:43:09.211Z,100.00
2022-10-22T15:45:38.606Z,100.00
2022-10-22T15:48:08.602Z,100.00
2022-10-22T15:50:40.183Z,100.00
2022-10-22T15:53:09.510Z,100.00
2022-10-22T15:56:04.516Z,100.00
2022-10-22T15:58:40.171Z,100.00
2022-10-22T16:01:11.596Z,100.00
2022-10-22T16:03:42.504Z,100.00
2022-10-22T16:06:12.335Z,100.00
2022-10-22T16:08:42.056Z,100.00
2022-10-22T16:11:11.723Z,100.00
2022-10-22T16:13:42.991Z,100.00
2022-10-22T16:16:12.592Z,100.00
2022-10-22T16:18:44.595Z,100.00
2022-10-22T16:21:15.497Z,100.00
2022-10-22T16:23:45.303Z,100.00
2022-10-22T16:26:14.958Z,100.00
2022-10-22T16:28:46.062Z,100.00
2022-10-22T16:31:17.831Z,100.00
2022-10-22T16:33:50.254Z,100.00
2022-10-22T16:36:20.974Z,100.00
2022-10-22T16:38:50.705Z,100.00
2022-10-22T16:41:22.227Z,100.00
2022-10-22T16:43:56.330Z,100.00
2022-10-22T16:46:25.550Z,100.00
2022-10-22T16:48:55.087Z,100.00
2022-10-22T16:51:25.923Z,100.00
2022-10-22T16:53:55.898Z,100.00
2022-10-22T16:56:26.064Z,100.00
2022-10-22T16:58:58.435Z,100.00
2022-10-22T17:01:29.258Z,100.00
2022-10-22T17:04:00.905Z,100.00
2022-10-22T17:06:30.166Z,100.00
2022-10-22T17:08:59.544Z,100.00
2022-10-22T17:11:30.265Z,100.00
2022-10-22T17:14:01.005Z,100.00
2022-10-22T17:16:30.761Z,100.00
2022-10-22T17:19:00.108Z,100.00
2022-10-22T17:21:29.324Z,100.00
2022-10-22T17:23:59.577Z,100.00
2022-10-22T17:26:28.898Z,100.00
2022-10-22T17:28:59.850Z,100.00
2022-10-22T17:31:33.251Z,100.00
2022-10-22T17:34:02.562Z,100.00
2022-10-22T17:36:35.645Z,100.00
2022-10-22T17:39:07.323Z,100.00
2022-10-22T17:41:38.089Z,100.00
2022-10-22T17:44:10.376Z,100.00
2022-10-22T17:46:39.951Z,100.00
2022-10-22T17:49:16.430Z,100.00
2022-10-22T17:51:46.014Z,100.00
2022-10-22T17:54:15.689Z,100.00
2022-10-22T17:56:47.454Z,100.00
2022-10-22T17:59:19.144Z,100.00
2022-10-22T18:01:48.840Z,100.00
2022-10-22T18:04:19.701Z,100.00
2022-10-22T18:06:49.283Z,100.00
2022-10-22T18:09:20.090Z,100.00
2022-10-22T18:11:50.067Z,100.00
2022-10-22T18:14:21.853Z,100.00
2022-10-22T18:16:51.705Z,100.00
2022-10-22T18:19:23.281Z,100.00
2022-10-22T18:21:53.314Z,100.00
2022-10-22T18:24:22.442Z,100.00
2022-10-22T18:26:52.428Z,100.00
2022-10-22T18:29:23.156Z,100.00
2022-10-22T18:31:57.550Z,100.00
2022-10-22T18:34:26.935Z,100.00
2022-10-22T18:36:56.536Z,100.00
2022-10-22T18:39:25.973Z,100.00
2022-10-22T18:41:55.474Z,100.00
2022-10-22T18:44:26.260Z,100.00
2022-10-22T18:46:56.000Z,100.00
2022-10-22T18:49:26.786Z,100.00
2022-10-22T18:51:56.322Z,100.00
2022-10-22T18:54:25.598Z,100.00
2022-10-22T18:56:59.456Z,100.00
2022-10-22T18:59:33.759Z,100.00
2022-10-22T19:02:02.989Z,100.00
2022-10-22T19:04:37.095Z,100.00
2022-10-22T19:09:42.107Z,100.00
2022-10-22T19:12:15.008Z,100.00
2022-10-22T19:14:46.349Z,100.00
2022-10-22T19:17:15.905Z,100.00
2022-10-22T19:19:46.457Z,100.00
2022-10-22T19:22:15.875Z,100.00
2022-10-22T19:24:45.123Z,100.00
2022-10-22T19:27:14.481Z,100.00
2022-10-22T19:29:45.733Z,100.00
2022-10-22T19:32:15.291Z,100.00
2022-10-22T19:34:45.710Z,100.00
2022-10-22T19:37:15.133Z,100.00
2022-10-22T19:39:44.457Z,100.00
2022-10-22T19:42:13.758Z,100.00
2022-10-22T19:44:44.915Z,100.00
2022-10-22T19:47:14.149Z,100.00
2022-10-22T19:49:43.654Z,100.00
2022-10-22T19:52:13.001Z,100.00
2022-10-22T19:54:45.571Z,100.00
2022-10-22T19:57:17.359Z,100.00
2022-10-22T19:59:48.643Z,100.00
2022-10-22T20:02:19.031Z,100.00
2022-10-22T20:04:49.956Z,100.00
2022-10-22T20:07:19.235Z,100.00
2022-10-22T20:09:48.472Z,100.00
2022-10-22T20:15:07.145Z,100.00
2022-10-22T20:17:36.606Z,100.00
2022-10-22T20:20:07.005Z,100.00
2022-10-22T20:22:36.163Z,100.00
2022-10-22T20:25:06.276Z,100.00
2022-10-22T20:27:35.714Z,100.00
2022-10-22T20:30:07.780Z,100.00
2022-10-22T20:32:39.437Z,100.00
2022-10-22T20:35:09.985Z,100.00
2022-10-22T20:37:39.274Z,100.00
2022-10-22T20:40:09.687Z,100.00
2022-10-22T20:42:39.019Z,100.00
2022-10-22T20:45:11.109Z,100.00
2022-10-22T20:47:51.472Z,100.00
2022-10-22T20:50:24.216Z,100.00
2022-10-22T20:52:53.454Z,100.00
2022-10-22T20:55:22.794Z,100.00
2022-10-22T20:57:52.033Z,100.00
2022-10-22T21:00:22.937Z,100.00
2022-10-22T21:02:52.468Z,100.00
2022-10-22T21:05:21.967Z,100.00
2022-10-22T21:07:51.230Z,100.00
2022-10-22T21:10:20.676Z,100.00
2022-10-22T21:12:49.889Z,100.00
2022-10-22T21:15:19.058Z,100.00
2022-10-22T21:17:49.473Z,100.00
2022-10-22T21:20:21.031Z,100.00
2022-10-22T21:22:53.374Z,100.00
2022-10-22T21:25:22.535Z,100.00
2022-10-22T21:27:51.774Z,100.00
2022-10-22T21:30:21.344Z,100.00
2022-10-22T21:32:52.805Z,100.00
2022-10-22T21:35:22.091Z,100.00
2022-10-22T21:37:51.276Z,100.00
2022-10-22T21:40:20.888Z,100.00
2022-10-22T21:42:51.897Z,100.00
2022-10-22T21:45:23.248Z,100.00
2022-10-22T21:47:53.995Z,100.00
2022-10-22T21:50:23.725Z,100.00
2022-10-22T21:52:59.736Z,100.00
2022-10-22T21:55:30.455Z,100.00
2022-10-22T21:57:59.790Z,100.00
2022-10-22T22:00:29.032Z,100.00
2022-10-22T22:03:00.153Z,100.00
2022-10-22T22:05:30.477Z,100.00
2022-10-22T22:08:00.114Z,100.00
2022-10-22T22:10:29.825Z,100.00
2022-10-22T22:12:59.070Z,100.00
2022-10-22T22:15:28.869Z,100.00
2022-10-22T22:17:59.897Z,100.00
2022-10-22T22:20:29.773Z,100.00
2022-10-22T22:22:59.367Z,100.00
2022-10-22T22:25:28.587Z,100.00
2022-10-22T22:27:58.042Z,100.00
2022-10-22T22:30:27.449Z,100.00
2022-10-22T22:32:58.269Z,100.00
2022-10-22T22:35:27.878Z,100.00
2022-10-22T22:37:57.099Z,100.00
2022-10-22T22:40:29.151Z,100.00
2022-10-22T22:43:02.067Z,100.00
2022-10-22T22:45:31.635Z,100.00
2022-10-22T22:48:02.338Z,100.00
2022-10-22T22:50:31.850Z,100.00
2022-10-22T22:53:02.456Z,100.00
2022-10-22T22:55:34.816Z,100.00
2022-10-22T22:58:04.169Z,100.00
2022-10-22T23:00:33.398Z,100.00
2022-10-22T23:03:04.470Z,100.00
2022-10-22T23:05:33.911Z,100.00
2022-10-22T23:08:03.213Z,100.00
2022-10-22T23:10:32.824Z,100.00
2022-10-22T23:13:02.246Z,100.00
2022-10-22T23:15:31.538Z,100.00
2022-10-22T23:18:01.007Z,100.00
2022-10-22T23:20:32.083Z,100.00
2022-10-22T23:23:01.807Z,100.00
2022-10-22T23:25:31.375Z,100.00
2022-10-22T23:28:00.620Z,100.00
2022-10-22T23:30:29.851Z,100.00
2022-10-22T23:32:59.369Z,100.00
2022-10-22T23:35:30.269Z,100.00
2022-10-22T23:38:01.251Z,100.00
2022-10-22T23:40:30.874Z,100.00
2022-10-22T23:43:00.174Z,100.00
2022-10-22T23:45:29.390Z,100.00
2022-10-22T23:47:58.775Z,100.00
2022-10-22T23:50:28.214Z,100.00
2022-10-22T23:52:57.837Z,100.00
2022-10-22T23:55:28.851Z,100.00
2022-10-22T23:57:58.176Z,100.00
